Bogota, Illinois
Current Conditions -  °F | °C
As of 2:15 PM on Sunday 23 Nov 2014 (Local Time) from KOLY Reporting Station
Light Rain Light Rain  
Wind Chill: 50°   Ceiling: 600
Heat Index: 50°   Visibility: 4mi
Dew Point: 50°   Wind: 7mph
Humidity: 100%   Direction: 130°SE
Pressure: 29.49"   Gusts: NA
Location:  38.9706°N, 88.1894°W
Report Text: KOLY 232015Z AUTO 13006KT 4SM -RA OVC006 10/10 A2949 RMK AO2 P0001
Loading
Personal Weather Stations






























Interactive Weather Map New forecast layout! Learn more

10-Day Weather Forecast

Advertisements
Track Severe Weather on mobile